createdAt,value
2023-02-12T00:05:31.622Z,40.90
2023-02-12T00:16:15.815Z,40.67
2023-02-12T00:26:58.128Z,40.66
2023-02-12T00:37:40.817Z,40.61
2023-02-12T00:48:22.301Z,40.54
2023-02-12T00:59:04.660Z,40.68
2023-02-12T01:09:46.336Z,40.69
2023-02-12T01:20:28.247Z,40.58
2023-02-12T01:31:13.598Z,40.65
2023-02-12T01:41:55.011Z,40.54
2023-02-12T01:52:37.259Z,40.67
2023-02-12T02:03:19.135Z,40.82
2023-02-12T02:14:19.562Z,40.59
2023-02-12T02:25:39.703Z,40.58
2023-02-12T02:36:30.056Z,40.56
2023-02-12T02:47:13.294Z,40.57
2023-02-12T02:58:05.358Z,40.67
2023-02-12T03:08:51.001Z,40.59
2023-02-12T03:19:37.822Z,40.47
2023-02-12T03:30:18.981Z,40.53
2023-02-12T03:41:13.164Z,40.50
2023-02-12T03:51:55.466Z,40.56
2023-02-12T04:02:36.655Z,40.60
2023-02-12T04:13:43.091Z,40.52
2023-02-12T04:24:25.067Z,40.54
2023-02-12T04:34:59.379Z,40.52
2023-02-12T04:45:42.317Z,40.55
2023-02-12T04:56:24.444Z,40.62
2023-02-12T05:06:48.147Z,40.77
2023-02-12T05:17:30.088Z,40.51
2023-02-12T05:28:11.811Z,40.49
2023-02-12T05:38:53.443Z,40.49
2023-02-12T05:49:35.354Z,40.52
2023-02-12T06:00:17.450Z,40.59
2023-02-12T06:11:06.956Z,40.64
2023-02-12T06:21:48.663Z,40.58
2023-02-12T06:32:30.689Z,40.57
2023-02-12T06:43:11.685Z,40.42
2023-02-12T06:53:54.509Z,40.62
2023-02-12T07:04:44.884Z,40.45
2023-02-12T07:15:40.584Z,40.46
2023-02-12T07:26:22.733Z,40.38
2023-02-12T07:37:05.982Z,40.29
2023-02-12T07:47:47.255Z,40.37
2023-02-12T09:18:45.842Z,40.62
2023-02-12T09:29:45.252Z,41.47
2023-02-12T09:40:52.378Z,42.14
2023-02-12T09:51:36.685Z,42.41
2023-02-12T10:02:19.837Z,42.65
2023-02-12T10:13:22.087Z,42.86
2023-02-12T10:24:33.632Z,42.20
2023-02-12T10:41:07.359Z,43.40
2023-02-12T10:51:52.362Z,43.29
2023-02-12T11:03:22.321Z,43.19
2023-02-12T11:14:26.782Z,43.23
2023-02-12T11:25:38.636Z,43.20
2023-02-12T11:36:25.279Z,43.25
2023-02-12T11:47:19.183Z,43.28
2023-02-12T11:58:24.690Z,43.36
2023-02-12T12:09:14.383Z,43.47
2023-02-12T12:19:59.729Z,43.94
2023-02-12T12:31:26.993Z,44.02
2023-02-12T12:42:35.539Z,44.00
2023-02-12T12:53:30.413Z,44.19
2023-02-12T13:04:15.499Z,44.43
2023-02-12T13:15:31.308Z,44.61
2023-02-12T13:26:23.669Z,44.75
2023-02-12T13:37:07.577Z,44.74
2023-02-12T13:48:22.286Z,44.75
2023-02-12T13:59:05.317Z,44.45
2023-02-12T14:10:08.852Z,44.52
2023-02-12T14:21:14.900Z,44.52
2023-02-12T14:32:01.140Z,44.39
2023-02-12T14:42:43.707Z,44.47
2023-02-12T14:53:35.592Z,44.59
2023-02-12T15:04:31.667Z,44.76
2023-02-12T15:15:40.408Z,45.01
2023-02-12T15:26:30.106Z,45.07
2023-02-12T15:37:30.583Z,45.21
2023-02-12T15:48:37.790Z,45.27
2023-02-12T15:59:32.928Z,45.43
2023-02-12T16:10:34.986Z,45.72
2023-02-12T16:21:54.504Z,45.84
2023-02-12T16:32:51.582Z,45.91
2023-02-12T16:43:47.821Z,45.97
2023-02-12T16:54:35.049Z,45.72
2023-02-12T17:05:19.383Z,45.67
2023-02-12T17:16:06.229Z,45.55
2023-02-12T17:26:53.665Z,45.58
2023-02-12T17:38:03.209Z,45.61
2023-02-12T17:48:54.122Z,45.52
2023-02-12T18:00:07.114Z,45.49
2023-02-12T18:11:00.359Z,45.46
2023-02-12T18:21:56.227Z,45.43
2023-02-12T18:32:47.305Z,45.39
2023-02-12T18:43:50.556Z,45.40
2023-02-12T18:55:02.640Z,45.44
2023-02-12T19:06:09.640Z,45.62
2023-02-12T19:17:15.675Z,45.52
2023-02-12T19:28:41.756Z,45.54
2023-02-12T19:39:49.970Z,45.51
2023-02-12T19:50:51.786Z,45.58
2023-02-12T20:01:46.203Z,45.86
2023-02-12T20:12:44.083Z,45.93
2023-02-12T20:35:55.882Z,45.73
